createdAt,value
2019-03-25T00:01:57.532Z,3.43
2019-03-25T00:05:01.922Z,2.80
2019-03-25T00:08:06.443Z,1.30
2019-03-25T00:11:11.006Z,1.00
2019-03-25T00:14:15.477Z,1.13
2019-03-25T00:17:19.911Z,0.80
2019-03-25T00:20:24.302Z,1.13
2019-03-25T00:23:28.755Z,0.80
2019-03-25T00:26:33.094Z,0.90
2019-03-25T00:29:37.454Z,0.90
2019-03-25T00:32:41.981Z,1.27
2019-03-25T00:35:46.356Z,0.90
2019-03-25T00:38:50.787Z,0.70
2019-03-25T00:41:55.275Z,1.00
2019-03-25T00:44:59.618Z,1.10
2019-03-25T00:48:04.091Z,1.30
2019-03-25T00:51:08.626Z,1.00
2019-03-25T00:54:12.991Z,0.97
2019-03-25T00:57:17.392Z,0.93
2019-03-25T01:00:22.151Z,0.87
2019-03-25T01:03:26.485Z,0.83
2019-03-25T01:06:30.908Z,0.63
2019-03-25T01:09:35.289Z,0.60
2019-03-25T01:12:39.644Z,0.70
2019-03-25T01:15:44.112Z,0.80
2019-03-25T01:18:48.484Z,0.70
2019-03-25T01:21:53.020Z,0.70
2019-03-25T01:25:02.269Z,0.63
2019-03-25T01:28:03.740Z,0.80
2019-03-25T01:31:08.212Z,0.50
2019-03-25T01:34:12.577Z,0.70
2019-03-25T01:37:17.031Z,0.77
2019-03-25T01:40:21.549Z,0.40
2019-03-25T01:43:25.958Z,0.50
2019-03-25T01:46:30.356Z,0.70
2019-03-25T01:49:34.696Z,0.50
2019-03-25T01:52:39.076Z,0.80
2019-03-25T01:55:43.449Z,1.50
2019-03-25T01:58:47.840Z,0.70
2019-03-25T02:01:52.210Z,0.60
2019-03-25T02:04:56.747Z,0.93
2019-03-25T02:08:01.219Z,0.90
2019-03-25T02:11:05.723Z,0.80
2019-03-25T02:14:10.095Z,1.13
2019-03-25T02:17:14.493Z,0.87
2019-03-25T02:20:26.346Z,0.60
2019-03-25T02:23:25.187Z,1.13
2019-03-25T02:26:29.563Z,1.27
2019-03-25T02:29:33.946Z,0.73
2019-03-25T02:32:38.332Z,1.03
2019-03-25T02:35:42.709Z,1.03
2019-03-25T02:38:47.115Z,0.70
2019-03-25T02:41:51.511Z,0.80
2019-03-25T02:44:55.877Z,0.93
2019-03-25T02:48:00.357Z,0.60
2019-03-25T02:51:04.880Z,1.10
2019-03-25T02:54:09.260Z,1.10
2019-03-25T02:57:13.645Z,0.87
2019-03-25T03:00:31.768Z,0.70
2019-03-25T03:03:36.154Z,0.93
2019-03-25T03:06:40.555Z,0.80
2019-03-25T03:09:44.999Z,1.00
2019-03-25T03:12:49.388Z,0.90
2019-03-25T03:15:53.754Z,0.93
2019-03-25T03:18:58.139Z,1.70
2019-03-25T03:22:02.546Z,1.80
2019-03-25T03:25:07.200Z,1.13
2019-03-25T03:28:11.560Z,1.50
2019-03-25T03:31:15.970Z,1.37
2019-03-25T03:34:20.356Z,1.27
2019-03-25T03:37:24.797Z,1.57
2019-03-25T03:40:29.176Z,1.63
2019-03-25T03:43:33.633Z,2.30
2019-03-25T03:46:38.038Z,2.40
2019-03-25T03:49:42.569Z,2.10
2019-03-25T03:52:47.040Z,2.67
2019-03-25T03:55:53.064Z,2.90
2019-03-25T03:58:58.529Z,1.97
2019-03-25T04:02:02.902Z,2.90
2019-03-25T04:05:07.454Z,2.23
2019-03-25T04:08:11.833Z,2.37
2019-03-25T04:11:16.292Z,1.37
2019-03-25T04:14:20.717Z,2.33
2019-03-25T04:17:25.119Z,1.93
2019-03-25T04:20:29.646Z,2.47
2019-03-25T04:23:34.008Z,2.00
2019-03-25T04:26:38.381Z,2.23
2019-03-25T04:29:42.741Z,2.10
2019-03-25T04:32:47.185Z,2.00
2019-03-25T04:35:51.606Z,1.30
2019-03-25T04:38:55.971Z,1.83
2019-03-25T04:42:00.360Z,2.20
2019-03-25T04:45:05.039Z,1.83
2019-03-25T04:48:09.388Z,1.83
2019-03-25T04:51:13.783Z,1.63
2019-03-25T04:54:18.119Z,1.63
2019-03-25T04:57:22.510Z,1.97
2019-03-25T05:00:37.498Z,1.63
2019-03-25T05:03:41.876Z,1.57
2019-03-25T05:06:46.223Z,1.47
2019-03-25T05:09:50.611Z,1.50
2019-03-25T05:12:54.981Z,1.40
2019-03-25T05:15:59.341Z,1.40
2019-03-25T05:19:03.770Z,1.83
2019-03-25T05:22:08.127Z,1.50
2019-03-25T05:25:12.493Z,2.00
2019-03-25T05:28:16.846Z,1.80
2019-03-25T05:31:21.252Z,1.60
2019-03-25T05:34:25.581Z,1.20
2019-03-25T05:37:30.033Z,1.80
2019-03-25T05:40:35.050Z,1.40
2019-03-25T05:43:39.424Z,1.50
2019-03-25T05:46:43.822Z,2.00
2019-03-25T05:49:48.181Z,1.77
2019-03-25T05:52:52.548Z,1.60
2019-03-25T05:55:56.936Z,2.00
2019-03-25T05:59:01.332Z,2.20
2019-03-25T06:02:05.841Z,2.43
2019-03-25T06:05:10.344Z,1.93
2019-03-25T06:08:14.774Z,2.07
2019-03-25T06:11:19.188Z,1.70
2019-03-25T06:14:23.578Z,2.30
2019-03-25T06:17:27.935Z,1.80
2019-03-25T06:20:32.308Z,1.90
2019-03-25T06:23:36.655Z,1.90
2019-03-25T06:26:40.996Z,2.23
2019-03-25T06:29:45.377Z,1.03
2019-03-25T06:32:49.770Z,1.63
2019-03-25T06:35:54.124Z,1.30
2019-03-25T06:38:58.472Z,1.77
2019-03-25T06:42:02.822Z,1.73
2019-03-25T06:45:08.225Z,1.77
2019-03-25T06:48:12.583Z,1.60
2019-03-25T06:51:16.943Z,1.43
2019-03-25T06:54:21.339Z,1.40
2019-03-25T06:57:26.107Z,1.27
2019-03-25T07:00:30.540Z,1.83
2019-03-25T07:03:34.870Z,1.20
2019-03-25T07:06:39.258Z,1.70
2019-03-25T07:09:43.630Z,1.33
2019-03-25T07:12:48.233Z,1.33
2019-03-25T07:15:52.996Z,1.33
2019-03-25T07:19:05.073Z,1.50
2019-03-25T07:22:09.466Z,1.27
2019-03-25T07:25:13.983Z,1.73
2019-03-25T07:28:18.328Z,1.73
2019-03-25T07:31:22.683Z,2.30
2019-03-25T07:34:27.025Z,1.93
2019-03-25T07:37:31.420Z,1.87
2019-03-25T07:40:35.843Z,1.20
2019-03-25T07:43:40.216Z,1.60
2019-03-25T07:46:44.695Z,1.50
2019-03-25T07:49:49.038Z,1.30
2019-03-25T07:52:53.495Z,1.30
2019-03-25T07:55:57.853Z,1.57
2019-03-25T07:59:02.215Z,1.43
2019-03-25T08:02:06.573Z,1.23
2019-03-25T08:05:11.388Z,1.50
2019-03-25T08:08:15.872Z,1.40
2019-03-25T08:11:20.298Z,1.17
2019-03-25T08:14:24.733Z,1.60
2019-03-25T08:17:30.035Z,1.10
2019-03-25T08:20:34.406Z,1.40
2019-03-25T08:23:38.783Z,1.20
2019-03-25T08:26:43.186Z,1.10
2019-03-25T08:29:47.530Z,1.37
2019-03-25T08:32:51.899Z,1.60
2019-03-25T08:35:56.376Z,1.90
2019-03-25T08:39:00.727Z,2.10
2019-03-25T08:42:05.252Z,2.30
2019-03-25T08:45:10.148Z,1.80
2019-03-25T08:48:14.512Z,1.90
2019-03-25T08:51:22.142Z,1.80
2019-03-25T08:54:26.586Z,2.00
2019-03-25T08:57:31.026Z,3.30
2019-03-25T09:00:35.470Z,1.80
2019-03-25T09:03:39.924Z,2.40
2019-03-25T09:06:44.290Z,2.27
2019-03-25T09:09:48.732Z,5.10
2019-03-25T09:12:53.171Z,14.03
2019-03-25T09:15:57.637Z,2.90
2019-03-25T09:19:01.956Z,2.20
2019-03-25T09:22:06.442Z,2.07
2019-03-25T09:25:11.352Z,2.03
2019-03-25T09:28:24.189Z,1.63
2019-03-25T09:31:22.311Z,2.20
2019-03-25T09:34:26.762Z,1.53
2019-03-25T09:37:31.208Z,1.40
2019-03-25T09:40:35.518Z,1.60
2019-03-25T09:43:40.002Z,1.57
2019-03-25T09:46:44.444Z,1.40
2019-03-25T09:49:48.826Z,2.10
2019-03-25T09:52:53.211Z,1.83
2019-03-25T09:55:57.638Z,2.17
2019-03-25T09:59:02.020Z,1.67
2019-03-25T10:02:09.236Z,1.77
2019-03-25T10:05:13.875Z,1.60
2019-03-25T10:08:18.450Z,1.90
2019-03-25T10:11:22.888Z,2.50
2019-03-25T10:14:27.291Z,1.93
2019-03-25T10:17:31.782Z,0.80
2019-03-25T10:20:36.165Z,0.33
2019-03-25T10:23:40.607Z,0.87
2019-03-25T10:26:45.018Z,0.97
2019-03-25T10:29:49.375Z,0.90
2019-03-25T10:32:53.857Z,1.00
2019-03-25T10:35:58.188Z,1.13
2019-03-25T10:39:02.691Z,1.27
2019-03-25T10:42:07.197Z,1.60
2019-03-25T10:45:12.581Z,1.23
2019-03-25T10:48:16.937Z,1.63
2019-03-25T10:51:21.296Z,2.33
2019-03-25T10:54:25.802Z,2.07
2019-03-25T10:57:30.241Z,2.07
2019-03-25T11:00:34.601Z,1.90
2019-03-25T11:03:39.009Z,1.67
2019-03-25T11:06:43.579Z,1.77
2019-03-25T11:09:47.940Z,1.87
2019-03-25T11:12:52.572Z,1.43
2019-03-25T11:15:57.395Z,1.87
2019-03-25T11:19:01.825Z,1.30
2019-03-25T11:22:06.431Z,1.10
2019-03-25T11:25:11.967Z,1.20
2019-03-25T11:28:16.872Z,1.30
2019-03-25T11:31:21.420Z,1.40
2019-03-25T11:34:25.966Z,1.67
2019-03-25T11:37:30.471Z,1.20
2019-03-25T11:40:34.992Z,1.37
2019-03-25T11:43:39.721Z,1.60
2019-03-25T11:46:44.022Z,2.07
2019-03-25T11:49:48.416Z,1.63
2019-03-25T11:52:52.802Z,1.03
2019-03-25T11:55:57.613Z,1.50
2019-03-25T11:59:03.070Z,1.40
2019-03-25T12:02:17.321Z,1.40
2019-03-25T12:05:14.839Z,1.20
2019-03-25T12:08:19.270Z,1.33
2019-03-25T12:11:25.686Z,1.10
2019-03-25T12:14:30.143Z,1.10
2019-03-25T12:17:35.659Z,1.00
2019-03-25T12:20:40.304Z,1.00
2019-03-25T12:23:44.879Z,0.67
2019-03-25T12:26:49.309Z,1.07
2019-03-25T12:29:53.894Z,0.67
2019-03-25T12:33:03.899Z,1.20
2019-03-25T12:36:04.785Z,1.07
2019-03-25T12:39:09.637Z,1.40
2019-03-25T12:42:14.251Z,0.80
2019-03-25T12:45:18.922Z,0.70
2019-03-25T12:48:23.666Z,0.80
2019-03-25T12:51:28.329Z,0.50
2019-03-25T12:54:33.019Z,0.70
2019-03-25T12:57:37.663Z,0.60
2019-03-25T13:00:43.722Z,1.10
2019-03-25T13:03:48.305Z,0.70
2019-03-25T13:06:52.848Z,0.60
2019-03-25T13:09:57.411Z,0.53
2019-03-25T13:13:01.860Z,0.87
2019-03-25T13:16:06.805Z,0.50
2019-03-25T13:19:11.552Z,0.73
2019-03-25T13:22:16.054Z,1.20
2019-03-25T13:25:20.448Z,0.80
2019-03-25T13:28:24.860Z,0.63
2019-03-25T13:31:29.235Z,1.00
2019-03-25T13:34:33.811Z,0.93
2019-03-25T13:37:38.302Z,0.90
2019-03-25T13:40:42.961Z,1.07
2019-03-25T13:43:47.553Z,1.07
2019-03-25T13:46:52.196Z,0.77
2019-03-25T13:49:56.718Z,0.70
2019-03-25T13:53:01.635Z,0.70
2019-03-25T13:56:08.930Z,0.70
2019-03-25T13:59:13.346Z,0.70
2019-03-25T14:02:18.010Z,0.90
2019-03-25T14:05:22.539Z,0.80
2019-03-25T14:08:26.917Z,0.90
2019-03-25T14:11:31.266Z,1.00
2019-03-25T14:14:35.629Z,0.60
2019-03-25T14:17:40.049Z,0.80
2019-03-25T14:20:44.526Z,0.83
2019-03-25T14:23:48.981Z,0.60
2019-03-25T14:26:53.388Z,0.70
2019-03-25T14:29:57.840Z,0.70
2019-03-25T14:33:02.385Z,0.70
2019-03-25T14:36:06.731Z,1.10
2019-03-25T14:39:11.097Z,0.77
2019-03-25T14:42:15.639Z,1.63
2019-03-25T14:45:26.369Z,1.80
2019-03-25T14:48:26.484Z,0.90
2019-03-25T14:51:30.982Z,0.83
2019-03-25T14:54:35.329Z,0.80
2019-03-25T14:57:39.669Z,0.67
2019-03-25T15:00:44.215Z,2.20
2019-03-25T15:03:48.637Z,1.37
2019-03-25T15:06:52.964Z,1.07
2019-03-25T15:09:57.330Z,0.90
2019-03-25T15:13:01.744Z,1.30
2019-03-25T15:16:06.101Z,1.17
2019-03-25T15:19:10.434Z,2.03
2019-03-25T15:22:14.875Z,0.87
2019-03-25T15:25:19.236Z,1.10
2019-03-25T15:28:23.766Z,1.00
2019-03-25T15:31:28.137Z,2.80
2019-03-25T15:34:32.490Z,1.27
2019-03-25T15:37:36.863Z,1.83
2019-03-25T15:40:41.226Z,0.90
2019-03-25T15:43:45.569Z,1.20
2019-03-25T15:46:55.781Z,3.70
2019-03-25T15:49:56.078Z,3.13
2019-03-25T15:53:00.501Z,1.20
2019-03-25T15:56:04.971Z,0.90
2019-03-25T15:59:09.326Z,1.50
2019-03-25T16:02:13.688Z,2.10
2019-03-25T16:05:18.514Z,1.30
2019-03-25T16:08:22.952Z,0.97
2019-03-25T16:11:27.324Z,1.10
2019-03-25T16:14:31.701Z,1.97
2019-03-25T16:17:36.081Z,1.40
2019-03-25T16:20:40.499Z,1.23
2019-03-25T16:23:44.999Z,1.33
2019-03-25T16:26:49.366Z,1.20
2019-03-25T16:29:53.703Z,1.70
2019-03-25T16:32:58.046Z,1.20
2019-03-25T16:36:02.492Z,1.13
2019-03-25T16:39:08.024Z,1.23
2019-03-25T16:42:12.367Z,1.10
2019-03-25T16:45:16.697Z,1.30
2019-03-25T16:48:21.030Z,1.40
2019-03-25T16:51:25.409Z,1.10
2019-03-25T16:54:29.754Z,1.23
2019-03-25T16:57:34.092Z,1.33
2019-03-25T17:00:38.506Z,1.40
2019-03-25T17:03:42.861Z,1.30
2019-03-25T17:06:47.199Z,1.20
2019-03-25T17:09:51.549Z,1.17
2019-03-25T17:12:55.905Z,1.40
2019-03-25T17:16:00.253Z,1.40
2019-03-25T17:19:04.615Z,1.10
2019-03-25T17:22:08.946Z,1.23
2019-03-25T17:25:13.576Z,1.50
2019-03-25T17:28:19.264Z,1.77
2019-03-25T17:31:23.682Z,1.70
2019-03-25T17:34:28.044Z,3.77
2019-03-25T17:37:32.371Z,3.90
2019-03-25T17:40:37.026Z,5.63
2019-03-25T17:43:41.386Z,5.60
2019-03-25T17:46:45.753Z,8.87
2019-03-25T17:49:50.107Z,9.43
2019-03-25T17:52:54.484Z,9.03
2019-03-25T17:55:58.862Z,10.43
2019-03-25T17:59:03.321Z,9.93
2019-03-25T18:02:07.852Z,17.80
2019-03-25T18:05:35.848Z,43.10
2019-03-25T18:08:40.402Z,17.77
2019-03-25T18:11:44.836Z,16.00
2019-03-25T18:14:49.173Z,6.90
2019-03-25T18:17:53.621Z,31.57
2019-03-25T18:20:57.989Z,20.67
2019-03-25T18:24:02.386Z,26.60
2019-03-25T18:27:06.829Z,23.17
2019-03-25T18:30:12.805Z,13.10
2019-03-25T18:33:17.341Z,5.43
2019-03-25T18:36:21.743Z,3.10
2019-03-25T18:39:26.185Z,3.40
2019-03-25T18:42:30.691Z,1.93
2019-03-25T18:45:35.026Z,1.87
2019-03-25T18:48:39.548Z,4.60
2019-03-25T18:51:43.990Z,3.20
2019-03-25T18:54:48.458Z,3.20
2019-03-25T18:57:52.923Z,3.23
2019-03-25T19:00:57.282Z,3.57
2019-03-25T19:04:01.817Z,3.33
2019-03-25T19:07:06.216Z,3.90
2019-03-25T19:10:14.728Z,5.20
2019-03-25T19:13:19.189Z,4.80
2019-03-25T19:16:23.549Z,4.83
2019-03-25T19:19:27.882Z,4.53
2019-03-25T19:22:32.275Z,3.37
2019-03-25T19:25:36.618Z,3.10
2019-03-25T19:28:41.006Z,4.70
2019-03-25T19:31:45.363Z,4.77
2019-03-25T19:34:49.844Z,5.57
2019-03-25T19:37:54.189Z,4.63
2019-03-25T19:40:58.753Z,3.80
2019-03-25T19:44:03.145Z,3.33
2019-03-25T19:47:07.524Z,2.90
2019-03-25T19:50:12.685Z,3.40
2019-03-25T19:53:19.315Z,3.13
2019-03-25T19:56:23.080Z,3.90
2019-03-25T19:59:27.446Z,4.57
2019-03-25T20:02:31.837Z,7.00
2019-03-25T20:05:36.371Z,3.00
2019-03-25T20:08:40.815Z,3.60
2019-03-25T20:11:45.119Z,2.70
2019-03-25T20:14:49.584Z,2.80
2019-03-25T20:17:53.943Z,2.80
2019-03-25T20:20:58.356Z,2.13
2019-03-25T20:24:02.777Z,2.50
2019-03-25T20:27:07.317Z,2.40
2019-03-25T20:30:12.555Z,2.93
2019-03-25T20:33:17.015Z,2.57
2019-03-25T20:36:21.375Z,2.30
2019-03-25T20:39:25.714Z,2.93
2019-03-25T20:42:30.089Z,1.77
2019-03-25T20:45:34.523Z,1.87
2019-03-25T20:48:38.889Z,2.10
2019-03-25T20:51:43.270Z,2.20
2019-03-25T20:54:47.763Z,1.97
2019-03-25T20:57:52.115Z,2.50
2019-03-25T21:00:57.613Z,2.63
2019-03-25T21:04:01.942Z,3.83
2019-03-25T21:07:06.264Z,2.90
2019-03-25T21:10:11.029Z,2.63
2019-03-25T21:13:15.490Z,2.57
2019-03-25T21:16:20.035Z,2.20
2019-03-25T21:19:24.459Z,1.63
2019-03-25T21:22:28.854Z,1.70
2019-03-25T21:25:33.187Z,1.87
2019-03-25T21:28:37.573Z,2.73
2019-03-25T21:31:44.135Z,2.27
2019-03-25T21:34:48.533Z,2.23
2019-03-25T21:37:52.921Z,2.03
2019-03-25T21:40:57.356Z,1.37
2019-03-25T21:44:01.795Z,2.27
2019-03-25T21:47:06.154Z,2.53
2019-03-25T21:50:10.771Z,2.30
2019-03-25T21:53:15.145Z,2.30
2019-03-25T21:56:19.493Z,2.30
2019-03-25T21:59:23.925Z,2.50
2019-03-25T22:02:28.260Z,3.07
2019-03-25T22:05:32.620Z,3.50
2019-03-25T22:08:36.967Z,2.07
2019-03-25T22:11:41.361Z,2.43
2019-03-25T22:14:45.703Z,2.90
2019-03-25T22:17:50.073Z,3.17
2019-03-25T22:20:54.428Z,2.83
2019-03-25T22:23:58.856Z,2.97
2019-03-25T22:27:03.304Z,2.83
2019-03-25T22:30:08.434Z,3.13
2019-03-25T22:33:25.134Z,2.93
2019-03-25T22:36:18.907Z,2.73
2019-03-25T22:39:23.331Z,2.97
2019-03-25T22:42:27.803Z,2.77
2019-03-25T22:45:33.548Z,2.93
2019-03-25T22:48:37.911Z,3.47
2019-03-25T22:51:43.156Z,3.23
2019-03-25T22:54:47.510Z,2.60
2019-03-25T22:57:51.843Z,3.57
2019-03-25T23:00:56.556Z,3.27
2019-03-25T23:04:00.905Z,3.57
2019-03-25T23:07:05.420Z,4.10
2019-03-25T23:10:09.878Z,3.87
2019-03-25T23:13:14.325Z,3.70
2019-03-25T23:16:18.692Z,4.10
2019-03-25T23:19:23.067Z,4.30
2019-03-25T23:22:27.467Z,5.53
2019-03-25T23:25:31.838Z,4.07
2019-03-25T23:28:36.227Z,4.40
2019-03-25T23:31:40.718Z,3.80
2019-03-25T23:34:45.091Z,3.67
2019-03-25T23:37:49.443Z,4.10
2019-03-25T23:40:53.824Z,4.27
2019-03-25T23:43:58.191Z,3.93
2019-03-25T23:47:02.539Z,3.47
2019-03-25T23:50:07.155Z,3.97
2019-03-25T23:53:11.533Z,3.73
2019-03-25T23:56:18.641Z,3.97
2019-03-25T23:59:21.985Z,3.60
